Main page
METAR-TAF:

METAR-TAF

Airports :

Kalamata International Airport

Kalamata, Greece

latitude: 37-04N, longitude: 022-01E, elevation: 6 m

Current weather observation

The report was made 16 minutes ago, at 08:20 UTC
Calm wind
Temperature 30°C
Humidity 31%
Pressure 1018 hPa
Visibility 10 km or more
no clouds below 1500 m and no cumulonimbus

METAR: LGKL 230820Z 00000KT CAVOK 30/11 Q1018

Time: 11:36 (08:36 UTC)

Forecast

The report was made 3 hours and 36 minutes ago, at 05:00 UTC
Forecast valid from 23 at 06 UTC to 23 at 15 UTC
Wind 6 kt from the North/Northwest
Visibility 10 km or more
Few clouds at a height of 2500 ft
Becoming
from 23 at 09 UTC to 23 at 11 UTC
Wind 8 kt from the Southeast

TAF: LGKL 230500Z 2306/2315 34006KT 9999 FEW025 BECMG 2309/2311 14008KT

Weather observations and forecasts of more than 4000 airports (METAR and TAF reports).

The available stations are represented by yellow and red dots on the map.

Hover mouse over dot to see the name of the station.

Then click to see weather observations and forecasts.

To change the map : click on the green buttons with a black cross to zoom in, on the green button with a dash to zoom out, or on the green arrows for adjacent maps.


METAR-TAF: